Time;durP1;ratioP1;P1;durP2;ratioP2;P2;SDS_P1;SDS_P2;PMS_P1;PMS_P2;Temp;Humidity;BMP_temperature;BMP_pressure;BME280_temperature;BME280_humidity;BME280_pressure;Samples;Min_cycle;Max_cycle;Signal;HPM_P1;HPM_P2
2022/08/18 00:01:43;;;;;;;;;;;24.50;59.00;;;;;;6299639;27;20526;-40
2022/08/18 00:04:45;;;;;;;;;;;24.40;59.00;;;;;;6325010;27;19930;-39
2022/08/18 00:07:50;;;;;;;;;;;24.50;59.10;;;;;;6324143;27;19924;-41
2022/08/18 00:10:52;;;;;;;;;;;24.50;59.10;;;;;;6313996;27;19958;-40
2022/08/18 00:13:53;;;;;;;;;;;24.80;59.30;;;;;;6322477;27;19927;-41
2022/08/18 00:16:55;;;;;;;;;;;24.50;59.10;;;;;;6323346;27;19919;-40
2022/08/18 00:19:56;;;;;;;;;;;24.70;59.80;;;;;;6317678;27;19926;-40
2022/08/18 00:22:58;;;;;;;;;;;24.60;59.10;;;;;;6316676;27;20676;-39
2022/08/18 00:26:03;;;;;;;;;;;24.50;59.10;;;;;;6321911;27;19927;-38
2022/08/18 00:29:05;;;;;;;;;;;24.70;59.20;;;;;;6318566;27;19927;-38
2022/08/18 00:32:13;;;;;;;;;;;24.50;59.10;;;;;;6330029;27;19922;-39
2022/08/18 00:35:17;;;;;;;;;;;24.50;59.20;;;;;;6311735;27;20037;-39
2022/08/18 00:38:18;;;;;;;;;;;24.40;59.10;;;;;;6327256;27;19919;-39
2022/08/18 00:41:26;;;;;;;;;;;24.60;59.30;;;;;;6325517;27;21162;-39
2022/08/18 00:44:27;;;;;;;;;;;24.60;59.30;;;;;;6324327;27;19966;-39
2022/08/18 00:47:30;;;;;;;;;;;24.40;59.20;;;;;;6327237;27;19919;-39
2022/08/18 00:50:50;;;;;;;;;;;24.50;59.20;;;;;;6318537;27;20415;-39
2022/08/18 00:53:54;;;;;;;;;;;24.60;59.30;;;;;;6316782;27;20385;-40
2022/08/18 00:56:59;;;;;;;;;;;24.40;59.30;;;;;;6315013;27;19987;-39
2022/08/18 01:00:03;;;;;;;;;;;24.30;59.20;;;;;;6314597;27;20285;-38
2022/08/18 01:03:08;;;;;;;;;;;24.40;59.20;;;;;;6294826;27;21272;-39
2022/08/18 01:06:13;;;;;;;;;;;24.40;59.30;;;;;;6314743;27;19967;-39
2022/08/18 01:09:16;;;;;;;;;;;24.60;59.30;;;;;;6316380;27;19970;-39
2022/08/18 01:12:18;;;;;;;;;;;24.30;59.20;;;;;;6296264;27;20278;-41
2022/08/18 01:15:39;;;;;;;;;;;24.50;59.40;;;;;;6300220;27;19934;-41
2022/08/18 01:22:03;;;;;;;;;;;24.40;59.30;;;;;;6315285;27;20458;-39
2022/08/18 01:28:28;;;;;;;;;;;24.60;59.50;;;;;;6304583;27;19934;-41
2022/08/18 01:31:33;;;;;;;;;;;24.30;59.30;;;;;;6318138;27;20194;-40
2022/08/18 01:34:35;;;;;;;;;;;24.50;59.40;;;;;;6314652;27;19923;-39
2022/08/18 01:37:37;;;;;;;;;;;24.60;59.50;;;;;;6313935;27;19931;-39
2022/08/18 01:40:39;;;;;;;;;;;24.70;59.60;;;;;;6314807;27;20004;-39
2022/08/18 01:44:00;;;;;;;;;;;24.50;59.50;;;;;;6300236;27;19964;-40
2022/08/18 01:47:02;;;;;;;;;;;24.70;59.60;;;;;;6295607;27;20195;-39
2022/08/18 01:50:05;;;;;;;;;;;24.40;59.50;;;;;;6316177;27;20889;-41
2022/08/18 01:53:06;;;;;;;;;;;24.70;59.60;;;;;;6317189;27;20225;-39
2022/08/18 01:56:08;;;;;;;;;;;24.60;59.60;;;;;;6314376;27;20025;-41
2022/08/18 01:59:12;;;;;;;;;;;24.40;59.50;;;;;;6315263;27;20145;-39
2022/08/18 02:02:15;;;;;;;;;;;24.30;59.50;;;;;;6313419;27;20075;-39
2022/08/18 02:05:24;;;;;;;;;;;24.30;59.50;;;;;;6313395;27;20725;-38
2022/08/18 02:08:25;;;;;;;;;;;24.40;59.50;;;;;;6315274;27;19934;-40
2022/08/18 02:11:30;;;;;;;;;;;24.10;59.40;;;;;;6310059;27;20122;-40
2022/08/18 02:14:31;;;;;;;;;;;24.30;59.50;;;;;;6292761;27;20211;-39
2022/08/18 02:17:36;;;;;;;;;;;24.70;59.70;;;;;;6313212;27;19977;-39
2022/08/18 02:20:37;;;;;;;;;;;24.60;59.70;;;;;;6311582;27;19949;-40
2022/08/18 02:23:39;;;;;;;;;;;24.90;59.90;;;;;;6311197;27;20240;-39
2022/08/18 02:26:46;;;;;;;;;;;24.40;59.60;;;;;;6295761;27;20094;-38
2022/08/18 02:29:50;;;;;;;;;;;24.40;59.60;;;;;;6316004;27;20675;-39
2022/08/18 02:32:52;;;;;;;;;;;24.20;59.50;;;;;;6313792;27;20146;-40
2022/08/18 02:35:53;;;;;;;;;;;24.50;59.70;;;;;;6326934;27;20004;-39
2022/08/18 02:38:55;;;;;;;;;;;24.40;59.60;;;;;;6330280;27;20038;-40
2022/08/18 02:42:01;;;;;;;;;;;24.40;59.60;;;;;;6327563;27;19923;-40
2022/08/18 02:45:03;;;;;;;;;;;24.40;59.60;;;;;;6325261;27;19934;-40
2022/08/18 02:48:05;;;;;;;;;;;24.30;59.60;;;;;;6327104;27;19927;-40
2022/08/18 02:51:08;;;;;;;;;;;24.30;59.60;;;;;;6327034;27;19965;-38
2022/08/18 02:54:12;;;;;;;;;;;24.30;59.60;;;;;;6309784;27;20038;-40
2022/08/18 02:57:14;;;;;;;;;;;24.40;59.60;;;;;;6327251;27;19926;-38
2022/08/18 03:00:16;;;;;;;;;;;24.50;59.70;;;;;;6328963;27;20845;-39
2022/08/18 03:03:20;;;;;;;;;;;24.70;59.80;;;;;;6315459;27;20902;-38
2022/08/18 03:06:21;;;;;;;;;;;24.40;59.60;;;;;;6329052;27;20221;-40
2022/08/18 03:09:23;;;;;;;;;;;24.20;59.50;;;;;;6315597;27;19977;-38
2022/08/18 03:12:25;;;;;;;;;;;24.20;59.50;;;;;;6332246;27;19950;-38
2022/08/18 03:15:26;;;;;;;;;;;24.30;59.70;;;;;;6329989;27;19919;-38
2022/08/18 03:18:29;;;;;;;;;;;24.20;59.60;;;;;;6330872;27;20038;-38
2022/08/18 03:21:31;;;;;;;;;;;24.30;59.60;;;;;;6333814;27;19941;-38
2022/08/18 03:24:36;;;;;;;;;;;24.40;59.70;;;;;;6333266;27;19930;-38
2022/08/18 03:27:38;;;;;;;;;;;24.60;59.80;;;;;;6328196;27;19923;-38
2022/08/18 03:30:42;;;;;;;;;;;24.60;59.80;;;;;;6333701;27;20033;-38
2022/08/18 03:33:44;;;;;;;;;;;24.20;59.60;;;;;;6329039;27;21038;-39
2022/08/18 03:36:46;;;;;;;;;;;24.20;59.60;;;;;;6327385;27;20054;-40
2022/08/18 03:39:50;;;;;;;;;;;24.20;59.60;;;;;;6329125;27;20038;-38
2022/08/18 03:42:52;;;;;;;;;;;24.30;59.70;;;;;;6325708;27;19927;-39
2022/08/18 03:45:54;;;;;;;;;;;24.40;59.80;;;;;;6331200;27;19927;-40
2022/08/18 03:48:57;;;;;;;;;;;24.40;59.70;;;;;;6326849;27;19930;-38
2022/08/18 03:51:59;;;;;;;;;;;24.30;59.70;;;;;;6314787;27;20023;-38
2022/08/18 03:55:01;;;;;;;;;;;24.20;59.60;;;;;;6309371;27;20831;-38
2022/08/18 03:58:04;;;;;;;;;;;24.50;59.80;;;;;;6330250;27;19926;-38
2022/08/18 04:01:09;;;;;;;;;;;24.50;59.80;;;;;;6326783;27;19986;-39
2022/08/18 04:04:11;;;;;;;;;;;24.50;59.80;;;;;;6330196;27;20132;-39
2022/08/18 04:07:16;;;;;;;;;;;24.00;59.50;;;;;;6328408;27;20029;-40
2022/08/18 04:10:18;;;;;;;;;;;24.20;59.70;;;;;;6330154;27;19919;-38
2022/08/18 04:13:21;;;;;;;;;;;24.30;59.70;;;;;;6328105;27;19930;-38
2022/08/18 04:16:22;;;;;;;;;;;24.20;59.70;;;;;;6326835;27;20042;-41
2022/08/18 04:19:24;;;;;;;;;;;24.30;59.70;;;;;;6325491;27;20855;-38
2022/08/18 04:22:30;;;;;;;;;;;24.20;60.30;;;;;;6324132;27;20000;-38
2022/08/18 04:25:33;;;;;;;;;;;24.80;60.00;;;;;;6323880;27;20003;-39
2022/08/18 04:28:35;;;;;;;;;;;24.30;59.80;;;;;;6324303;27;20839;-40
2022/08/18 04:31:36;;;;;;;;;;;24.40;59.80;;;;;;6324990;27;19934;-39
2022/08/18 04:34:38;;;;;;;;;;;24.20;59.70;;;;;;6326871;27;20789;-38
2022/08/18 04:37:39;;;;;;;;;;;24.60;59.90;;;;;;6305568;27;20817;-38
2022/08/18 04:40:43;;;;;;;;;;;24.40;59.80;;;;;;6325711;27;19967;-40
2022/08/18 04:43:46;;;;;;;;;;;24.40;59.90;;;;;;6325765;27;20071;-38
2022/08/18 04:46:49;;;;;;;;;;;24.30;59.80;;;;;;6324996;27;19926;-40
2022/08/18 04:49:51;;;;;;;;;;;24.30;59.80;;;;;;6323798;27;20013;-38
2022/08/18 04:56:12;;;;;;;;;;;24.20;59.80;;;;;;6305951;27;19930;-39
2022/08/18 04:59:17;;;;;;;;;;;24.40;59.90;;;;;;6305881;27;19919;-40
2022/08/18 05:02:19;;;;;;;;;;;24.20;59.80;;;;;;6319960;27;21079;-38
2022/08/18 05:05:20;;;;;;;;;;;24.20;59.80;;;;;;6317185;27;19930;-39
2022/08/18 05:08:22;;;;;;;;;;;24.40;60.00;;;;;;6318451;27;20868;-40
2022/08/18 05:11:24;;;;;;;;;;;24.20;59.80;;;;;;6313607;27;19931;-40
2022/08/18 05:14:26;;;;;;;;;;;24.20;59.80;;;;;;6297934;27;19981;-38
2022/08/18 05:17:28;;;;;;;;;;;24.30;59.90;;;;;;6313214;27;20575;-39
2022/08/18 05:20:31;;;;;;;;;;;24.40;60.00;;;;;;6321918;27;19922;-38
2022/08/18 05:23:34;;;;;;;;;;;24.20;59.90;;;;;;6320451;27;20266;-38
2022/08/18 05:26:36;;;;;;;;;;;24.30;60.00;;;;;;6305995;27;20116;-40
2022/08/18 05:29:38;;;;;;;;;;;24.20;59.90;;;;;;6318908;27;20042;-38
2022/08/18 05:32:47;;;;;;;;;;;24.50;60.00;;;;;;6325130;27;20029;-42
2022/08/18 05:35:54;;;;;;;;;;;24.20;60.00;;;;;;6319366;27;19919;-38
2022/08/18 05:38:58;;;;;;;;;;;24.30;59.90;;;;;;6325462;27;20045;-40
2022/08/18 05:42:04;;;;;;;;;;;24.50;60.10;;;;;;6307160;27;20014;-39
2022/08/18 05:45:08;;;;;;;;;;;24.30;60.00;;;;;;6299868;27;19939;-40
2022/08/18 05:48:09;;;;;;;;;;;24.30;60.00;;;;;;6315969;27;19931;-38
2022/08/18 05:51:15;;;;;;;;;;;24.30;60.00;;;;;;6314562;27;19919;-39
2022/08/18 05:57:38;;;;;;;;;;;24.50;60.00;;;;;;6307345;27;20377;-40
2022/08/18 06:00:41;;;;;;;;;;;24.40;60.00;;;;;;6313555;27;19969;-38
2022/08/18 06:03:47;;;;;;;;;;;24.30;60.00;;;;;;6308007;27;19952;-40
2022/08/18 06:06:49;;;;;;;;;;;24.20;59.90;;;;;;6308922;27;19978;-39
2022/08/18 06:09:52;;;;;;;;;;;24.50;60.10;;;;;;6311067;27;20050;-40
2022/08/18 06:12:54;;;;;;;;;;;24.30;60.00;;;;;;6285216;27;21062;-38
2022/08/18 06:15:59;;;;;;;;;;;24.30;60.00;;;;;;6306413;27;19927;-39
2022/08/18 06:19:02;;;;;;;;;;;24.30;60.00;;;;;;6304965;27;20815;-39
2022/08/18 06:22:13;;;;;;;;;;;24.60;60.30;;;;;;6295996;27;20054;-38
2022/08/18 06:25:17;;;;;;;;;;;24.20;60.10;;;;;;6291495;27;19934;-38
2022/08/18 06:28:19;;;;;;;;;;;24.40;60.30;;;;;;6261748;27;21017;-39
2022/08/18 06:31:28;;;;;;;;;;;24.40;60.20;;;;;;6284631;27;20159;-39
2022/08/18 06:34:39;;;;;;;;;;;24.20;60.10;;;;;;6288636;27;19926;-39
2022/08/18 06:41:02;;;;;;;;;;;24.30;60.10;;;;;;6279732;27;22110;-38
2022/08/18 06:44:04;;;;;;;;;;;24.30;60.10;;;;;;6274381;27;19988;-38
2022/08/18 06:47:10;;;;;;;;;;;24.30;60.10;;;;;;6277147;27;20043;-39
2022/08/18 06:50:19;;;;;;;;;;;24.20;60.10;;;;;;6288189;27;20021;-38
2022/08/18 06:53:21;;;;;;;;;;;24.50;60.20;;;;;;6267488;27;21662;-39
2022/08/18 06:56:34;;;;;;;;;;;24.50;60.30;;;;;;6281447;27;19937;-39
2022/08/18 06:59:36;;;;;;;;;;;24.30;60.10;;;;;;6268066;27;23240;-38
2022/08/18 07:02:42;;;;;;;;;;;24.40;60.10;;;;;;6215882;27;19982;-38
2022/08/18 07:05:57;;;;;;;;;;;24.40;60.10;;;;;;6201408;27;19978;-39
2022/08/18 07:09:14;;;;;;;;;;;24.60;60.90;;;;;;6204458;27;19930;-38
2022/08/18 07:12:18;;;;;;;;;;;24.70;60.90;;;;;;6207444;27;20154;-38
2022/08/18 07:15:23;;;;;;;;;;;24.50;60.00;;;;;;6223679;27;20542;-38
2022/08/18 07:18:27;;;;;;;;;;;24.40;59.90;;;;;;6215822;27;19993;-38
2022/08/18 07:21:29;;;;;;;;;;;24.50;59.90;;;;;;6236234;27;19926;-39
2022/08/18 07:24:38;;;;;;;;;;;24.50;59.80;;;;;;6230876;27;20119;-38
2022/08/18 07:27:41;;;;;;;;;;;24.70;59.90;;;;;;6243333;27;20107;-38
2022/08/18 07:30:42;;;;;;;;;;;24.40;59.60;;;;;;6249013;27;20058;-39
2022/08/18 07:34:07;;;;;;;;;;;24.70;59.80;;;;;;6219985;27;19964;-39
2022/08/18 07:37:13;;;;;;;;;;;24.70;59.70;;;;;;6230649;27;19995;-39
2022/08/18 07:40:19;;;;;;;;;;;24.80;59.60;;;;;;6211342;27;20426;-39
2022/08/18 07:43:26;;;;;;;;;;;24.50;59.40;;;;;;6229257;27;21116;-38
2022/08/18 07:46:28;;;;;;;;;;;;;;;;;;6195553;27;25136;-38
2022/08/18 07:49:32;;;;;;;;;;;24.90;59.80;;;;;;6241176;27;21184;-39
2022/08/18 07:52:37;;;;;;;;;;;24.90;59.40;;;;;;6236359;27;21554;-38
2022/08/18 07:55:51;;;;;;;;;;;24.80;59.40;;;;;;6224320;27;19934;-39
2022/08/18 07:58:55;;;;;;;;;;;24.90;59.40;;;;;;6217481;27;19934;-41
2022/08/18 08:02:05;;;;;;;;;;;25.00;59.50;;;;;;6221608;27;19933;-39
2022/08/18 08:05:12;;;;;;;;;;;24.90;59.30;;;;;;6222249;27;21034;-40
2022/08/18 08:08:19;;;;;;;;;;;25.10;59.40;;;;;;6245787;27;19948;-39
2022/08/18 08:11:32;;;;;;;;;;;25.10;59.30;;;;;;6214525;27;21335;-39
2022/08/18 08:14:38;;;;;;;;;;;24.90;59.20;;;;;;6221011;27;20376;-36
2022/08/18 08:17:44;;;;;;;;;;;25.10;59.30;;;;;;6244721;27;19934;-40
2022/08/18 08:20:50;;;;;;;;;;;25.00;59.20;;;;;;6230892;27;19930;-37
2022/08/18 08:23:54;;;;;;;;;;;24.80;59.00;;;;;;6234756;27;19970;-37
2022/08/18 08:26:59;;;;;;;;;;;25.20;59.20;;;;;;6242355;27;19974;-37
2022/08/18 08:30:03;;;;;;;;;;;25.20;59.20;;;;;;6241611;27;19926;-37
2022/08/18 08:33:08;;;;;;;;;;;25.10;59.10;;;;;;6245427;27;20982;-38
2022/08/18 08:36:13;;;;;;;;;;;25.00;59.00;;;;;;6225322;27;20010;-38
2022/08/18 08:39:18;;;;;;;;;;;24.90;58.90;;;;;;6231927;27;19936;-39
2022/08/18 08:42:24;;;;;;;;;;;25.30;59.10;;;;;;6221974;27;19933;-38
2022/08/18 08:45:35;;;;;;;;;;;25.20;59.60;;;;;;6236233;27;19934;-38
2022/08/18 08:48:40;;;;;;;;;;;25.30;59.10;;;;;;6209527;27;19967;-37
2022/08/18 08:51:45;;;;;;;;;;;25.30;59.00;;;;;;6165034;27;19982;-37
2022/08/18 08:54:50;;;;;;;;;;;25.30;59.00;;;;;;6217347;27;19974;-37
2022/08/18 08:57:54;;;;;;;;;;;25.30;58.90;;;;;;6234235;27;19927;-40
2022/08/18 09:00:56;;;;;;;;;;;25.40;59.00;;;;;;6176470;27;19930;-39
2022/08/18 09:04:01;;;;;;;;;;;25.50;59.00;;;;;;6210430;27;21766;-39
2022/08/18 09:07:10;;;;;;;;;;;25.40;58.90;;;;;;6220157;27;20176;-40
2022/08/18 09:10:21;;;;;;;;;;;25.40;59.00;;;;;;6196660;27;20003;-39
2022/08/18 09:13:37;;;;;;;;;;;25.50;59.10;;;;;;6225478;27;21460;-38
2022/08/18 09:16:46;;;;;;;;;;;25.60;59.00;;;;;;6217393;27;24808;-40
2022/08/18 09:19:57;;;;;;;;;;;25.50;59.00;;;;;;6209872;27;19934;-38
2022/08/18 09:23:03;;;;;;;;;;;25.50;59.00;;;;;;6184412;27;19974;-36
2022/08/18 09:26:20;;;;;;;;;;;25.50;58.90;;;;;;6216640;27;20027;-39
2022/08/18 09:29:26;;;;;;;;;;;25.50;59.00;;;;;;6168873;27;23074;-38
2022/08/18 09:32:42;;;;;;;;;;;25.50;59.00;;;;;;6174168;27;28641;-37
2022/08/18 09:35:56;;;;;;;;;;;25.50;59.00;;;;;;6190131;27;20066;-41
2022/08/18 09:42:28;;;;;;;;;;;25.50;58.90;;;;;;6223359;27;19934;-37
2022/08/18 09:45:54;;;;;;;;;;;25.70;59.10;;;;;;6190826;27;24336;-38
2022/08/18 09:49:23;;;;;;;;;;;25.70;59.00;;;;;;6186685;27;20011;-38
2022/08/18 09:52:42;;;;;;;;;;;25.60;58.90;;;;;;6201890;27;19927;-38
2022/08/18 09:55:54;;;;;;;;;;;25.60;58.90;;;;;;6219929;27;20014;-38
2022/08/18 09:59:03;;;;;;;;;;;25.60;58.90;;;;;;6223976;27;20069;-38
2022/08/18 10:02:32;;;;;;;;;;;25.70;59.00;;;;;;6205254;27;19933;-38
2022/08/18 10:05:34;;;;;;;;;;;25.80;59.10;;;;;;6218847;27;19932;-38
2022/08/18 10:08:46;;;;;;;;;;;25.50;58.80;;;;;;6216704;27;21237;-38
2022/08/18 10:11:55;;;;;;;;;;;25.70;59.00;;;;;;6234915;27;20958;-41
2022/08/18 10:15:02;;;;;;;;;;;25.60;58.90;;;;;;6263035;27;19927;-43
2022/08/18 10:18:14;;;;;;;;;;;25.60;58.90;;;;;;6234626;27;19927;-42
2022/08/18 10:21:20;;;;;;;;;;;25.50;58.90;;;;;;6261690;27;19927;-42
2022/08/18 10:24:28;;;;;;;;;;;25.80;59.10;;;;;;6214845;27;19927;-42
2022/08/18 10:27:47;;;;;;;;;;;25.70;59.20;;;;;;6270386;27;19934;-42
2022/08/18 10:31:03;;;;;;;;;;;25.70;59.30;;;;;;6273461;27;19927;-42
2022/08/18 10:34:12;;;;;;;;;;;25.60;59.30;;;;;;6258471;27;19993;-42
2022/08/18 10:37:22;;;;;;;;;;;25.40;59.10;;;;;;6225307;27;21780;-42
2022/08/18 10:40:27;;;;;;;;;;;25.50;59.20;;;;;;6268681;27;20437;-45
2022/08/18 10:43:34;;;;;;;;;;;25.50;59.30;;;;;;6275747;27;19927;-46
2022/08/18 10:46:57;;;;;;;;;;;25.30;59.20;;;;;;6250376;27;19927;-42
2022/08/18 10:50:00;;;;;;;;;;;25.40;59.30;;;;;;6260414;27;21435;-41
2022/08/18 10:53:07;;;;;;;;;;;25.50;59.30;;;;;;6279784;27;19927;-43
2022/08/18 10:56:32;;;;;;;;;;;25.50;60.00;;;;;;6239214;27;19927;-41
2022/08/18 10:59:38;;;;;;;;;;;25.40;59.40;;;;;;6267610;27;20123;-42
2022/08/18 11:03:01;;;;;;;;;;;25.30;59.30;;;;;;6272010;27;20307;-42
2022/08/18 11:06:24;;;;;;;;;;;25.50;59.40;;;;;;6259150;27;20686;-41
2022/08/18 11:09:27;;;;;;;;;;;25.50;59.40;;;;;;6274076;27;20041;-43
2022/08/18 11:12:49;;;;;;;;;;;25.50;59.50;;;;;;6262277;27;19938;-42
2022/08/18 11:15:57;;;;;;;;;;;25.40;59.40;;;;;;6255041;27;19926;-42
2022/08/18 11:19:05;;;;;;;;;;;25.40;59.40;;;;;;6270666;27;20502;-41
2022/08/18 11:22:19;;;;;;;;;;;25.30;59.30;;;;;;6271895;27;19969;-40
2022/08/18 11:25:35;;;;;;;;;;;25.20;59.30;;;;;;6274632;27;20046;-39
2022/08/18 11:28:37;;;;;;;;;;;25.30;59.30;;;;;;6255600;27;20312;-40
2022/08/18 11:31:46;;;;;;;;;;;25.30;59.30;;;;;;6271221;27;20017;-41
2022/08/18 11:35:00;;;;;;;;;;;25.50;59.40;;;;;;6265025;27;19979;-42
2022/08/18 11:38:03;;;;;;;;;;;25.20;59.10;;;;;;6267091;27;21014;-38
2022/08/18 11:41:15;;;;;;;;;;;25.30;59.20;;;;;;6237002;27;20094;-42
2022/08/18 11:44:19;;;;;;;;;;;25.50;59.30;;;;;;6243602;27;19933;-41
2022/08/18 11:47:21;;;;;;;;;;;25.40;59.20;;;;;;6217050;27;19934;-41
2022/08/18 11:50:30;;;;;;;;;;;25.60;59.30;;;;;;6254579;27;20039;-41
2022/08/18 11:53:36;;;;;;;;;;;25.40;59.20;;;;;;6239466;27;20799;-42
2022/08/18 11:56:40;;;;;;;;;;;25.80;59.50;;;;;;6231254;27;19927;-42
2022/08/18 11:59:41;;;;;;;;;;;25.40;59.20;;;;;;6252343;27;19931;-41
2022/08/18 12:03:01;;;;;;;;;;;25.30;59.20;;;;;;6193445;27;20900;-42
2022/08/18 12:06:09;;;;;;;;;;;25.00;58.90;;;;;;6208661;27;20384;-42
2022/08/18 12:09:21;;;;;;;;;;;25.40;59.20;;;;;;6202318;27;19931;-40
2022/08/18 12:12:45;;;;;;;;;;;25.40;59.20;;;;;;6193908;27;19960;-41
2022/08/18 12:15:46;;;;;;;;;;;25.50;59.30;;;;;;6210668;27;19927;-40
2022/08/18 12:18:48;;;;;;;;;;;25.30;59.30;;;;;;6226612;27;20800;-40
2022/08/18 12:21:55;;;;;;;;;;;25.40;59.20;;;;;;6209307;27;19933;-40
2022/08/18 12:24:57;;;;;;;;;;;25.30;59.20;;;;;;6200601;27;20474;-41
2022/08/18 12:27:59;;;;;;;;;;;25.30;59.20;;;;;;6198746;27;31644;-39
2022/08/18 12:31:01;;;;;;;;;;;25.30;59.20;;;;;;6216082;27;19931;-39
2022/08/18 12:34:07;;;;;;;;;;;25.20;59.80;;;;;;6212736;27;19927;-40
2022/08/18 12:37:15;;;;;;;;;;;25.30;59.30;;;;;;6215332;27;19927;-39
2022/08/18 12:40:37;;;;;;;;;;;25.20;59.20;;;;;;6193271;27;21121;-39
2022/08/18 12:43:40;;;;;;;;;;;25.30;59.30;;;;;;6209534;27;19927;-43
2022/08/18 12:46:44;;;;;;;;;;;25.30;59.40;;;;;;6204583;27;21162;-38
2022/08/18 12:49:46;;;;;;;;;;;25.30;59.30;;;;;;6218399;27;19927;-39
2022/08/18 12:52:51;;;;;;;;;;;25.40;59.30;;;;;;6193628;27;19928;-39
2022/08/18 12:55:53;;;;;;;;;;;25.10;59.10;;;;;;6202668;27;20065;-39
2022/08/18 12:58:56;;;;;;;;;;;25.40;59.20;;;;;;6211361;27;20970;-40
2022/08/18 13:01:58;;;;;;;;;;;25.40;59.10;;;;;;6199658;27;22328;-39
2022/08/18 13:05:01;;;;;;;;;;;25.40;59.10;;;;;;6220638;27;20302;-39
2022/08/18 13:08:11;;;;;;;;;;;25.40;59.10;;;;;;6212527;27;20062;-39
2022/08/18 13:11:13;;;;;;;;;;;25.20;59.00;;;;;;6228302;27;19934;-40
2022/08/18 13:14:25;;;;;;;;;;;25.40;59.10;;;;;;6213151;27;19927;-40
2022/08/18 13:17:26;;;;;;;;;;;25.40;59.10;;;;;;6199127;27;20678;-38
2022/08/18 13:20:35;;;;;;;;;;;25.40;59.00;;;;;;6225647;27;23948;-39
2022/08/18 13:23:37;;;;;;;;;;;25.20;58.90;;;;;;6228021;27;19926;-38
2022/08/18 13:26:42;;;;;;;;;;;25.40;59.00;;;;;;6196016;27;22685;-38
2022/08/18 13:29:47;;;;;;;;;;;25.40;58.70;;;;;;6223055;27;20007;-39
2022/08/18 13:32:52;;;;;;;;;;;25.40;59.00;;;;;;6210373;27;19927;-39
2022/08/18 13:36:07;;;;;;;;;;;25.50;59.00;;;;;;6235095;27;19928;-39
2022/08/18 13:39:09;;;;;;;;;;;25.40;59.00;;;;;;6224084;27;24643;-39
2022/08/18 13:42:10;;;;;;;;;;;25.20;58.80;;;;;;6234255;27;20674;-40
2022/08/18 13:45:31;;;;;;;;;;;25.40;59.00;;;;;;6207509;27;20008;-40
2022/08/18 13:48:33;;;;;;;;;;;25.40;59.00;;;;;;6232857;27;19927;-40
2022/08/18 13:51:35;;;;;;;;;;;25.40;59.00;;;;;;6233080;27;19927;-39
2022/08/18 13:54:38;;;;;;;;;;;25.40;59.00;;;;;;6232158;27;20619;-40
2022/08/18 13:57:46;;;;;;;;;;;25.50;59.10;;;;;;6235906;27;19927;-41
2022/08/18 14:00:51;;;;;;;;;;;25.30;58.90;;;;;;6175934;27;19934;-40
2022/08/18 14:03:52;;;;;;;;;;;25.30;58.90;;;;;;6204131;27;19930;-39
2022/08/18 14:06:54;;;;;;;;;;;25.10;58.80;;;;;;6188036;27;20320;-40
2022/08/18 14:10:00;;;;;;;;;;;25.30;58.90;;;;;;6173304;27;19927;-40
2022/08/18 14:13:07;;;;;;;;;;;25.20;58.90;;;;;;6224729;27;20046;-39
2022/08/18 14:16:26;;;;;;;;;;;25.30;58.90;;;;;;6206885;27;21251;-40
2022/08/18 14:29:25;;;;;;;;;;;25.30;59.00;;;;;;6189258;27;20147;-39
2022/08/18 14:32:47;;;;;;;;;;;25.30;59.00;;;;;;6187864;27;19975;-40
2022/08/18 14:36:02;;;;;;;;;;;25.50;59.10;;;;;;6196560;27;21090;-39
2022/08/18 14:39:10;;;;;;;;;;;25.30;58.90;;;;;;6224763;27;20071;-39
2022/08/18 14:42:13;;;;;;;;;;;25.10;58.80;;;;;;6231100;27;19933;-39
2022/08/18 14:45:16;;;;;;;;;;;25.40;59.10;;;;;;6207802;27;19928;-41
2022/08/18 14:48:37;;;;;;;;;;;25.20;58.90;;;;;;6235433;27;20271;-40
2022/08/18 14:51:41;;;;;;;;;;;25.30;59.00;;;;;;6218787;27;20767;-40
2022/08/18 14:54:43;;;;;;;;;;;25.20;58.90;;;;;;6211567;27;19934;-39
2022/08/18 14:57:52;;;;;;;;;;;25.30;58.90;;;;;;6235403;27;19927;-40
2022/08/18 15:00:54;;;;;;;;;;;25.30;59.00;;;;;;6186345;27;20042;-39
2022/08/18 15:03:58;;;;;;;;;;;25.30;58.90;;;;;;6201859;27;19973;-40
2022/08/18 15:06:59;;;;;;;;;;;25.10;58.80;;;;;;6202271;27;20049;-40
2022/08/18 15:10:01;;;;;;;;;;;25.30;58.90;;;;;;6226267;27;20049;-44
2022/08/18 15:13:17;;;;;;;;;;;25.30;58.80;;;;;;6245040;27;19973;-40
2022/08/18 15:16:21;;;;;;;;;;;25.20;58.70;;;;;;6230798;27;19927;-41
2022/08/18 15:19:28;;;;;;;;;;;25.30;58.80;;;;;;6253931;27;19934;-39
2022/08/18 15:26:06;;;;;;;;;;;25.30;58.50;;;;;;6234338;27;19946;-41
2022/08/18 15:29:09;;;;;;;;;;;25.30;58.60;;;;;;6256950;27;19969;-39
2022/08/18 15:32:14;;;;;;;;;;;25.20;58.50;;;;;;6228289;27;19933;-39
2022/08/18 15:35:19;;;;;;;;;;;25.50;58.70;;;;;;6242225;27;19935;-40
2022/08/18 15:38:22;;;;;;;;;;;25.40;58.60;;;;;;6253916;27;20057;-38
2022/08/18 15:41:28;;;;;;;;;;;25.50;58.70;;;;;;6215434;27;19927;-39
2022/08/18 15:44:32;;;;;;;;;;;25.30;58.60;;;;;;6230853;27;20472;-39
2022/08/18 15:47:34;;;;;;;;;;;25.30;58.50;;;;;;6247687;27;20529;-39
2022/08/18 15:50:38;;;;;;;;;;;25.40;58.70;;;;;;6254852;27;20493;-38
2022/08/18 15:53:41;;;;;;;;;;;25.40;58.60;;;;;;6241754;27;19927;-38
2022/08/18 15:56:46;;;;;;;;;;;25.20;58.50;;;;;;6267780;27;19961;-39
2022/08/18 16:00:00;;;;;;;;;;;25.40;58.60;;;;;;6259677;27;19981;-38
2022/08/18 16:03:03;;;;;;;;;;;25.40;58.70;;;;;;6265160;27;20010;-38
2022/08/18 16:06:13;;;;;;;;;;;25.30;58.60;;;;;;6259625;27;20008;-38
2022/08/18 16:09:21;;;;;;;;;;;25.30;58.50;;;;;;6260184;27;19927;-38
2022/08/18 16:12:22;;;;;;;;;;;25.10;58.40;;;;;;6263152;27;20057;-38
2022/08/18 16:15:24;;;;;;;;;;;25.50;58.70;;;;;;6262651;27;20070;-38
2022/08/18 16:18:28;;;;;;;;;;;25.30;58.50;;;;;;6263866;27;19931;-39
2022/08/18 16:21:30;;;;;;;;;;;25.50;58.70;;;;;;6276185;27;19933;-38
2022/08/18 16:24:32;;;;;;;;;;;25.40;58.60;;;;;;6284826;27;19927;-38
2022/08/18 16:27:34;;;;;;;;;;;25.40;58.50;;;;;;6290208;27;19927;-38
2022/08/18 16:30:38;;;;;;;;;;;25.20;58.40;;;;;;6269562;27;19934;-38
2022/08/18 16:33:40;;;;;;;;;;;25.10;58.30;;;;;;6294148;27;20043;-38
2022/08/18 16:36:42;;;;;;;;;;;25.60;58.60;;;;;;6273810;27;20065;-39
2022/08/18 16:39:44;;;;;;;;;;;25.40;58.50;;;;;;6293328;27;21841;-38
2022/08/18 16:42:45;;;;;;;;;;;25.40;58.50;;;;;;6295532;27;19958;-39
2022/08/18 16:45:51;;;;;;;;;;;25.30;58.40;;;;;;6303569;27;19922;-38
2022/08/18 16:48:53;;;;;;;;;;;25.30;58.40;;;;;;6299298;27;19934;-39
2022/08/18 16:51:55;;;;;;;;;;;25.40;58.50;;;;;;6287484;27;21329;-38
2022/08/18 16:54:57;;;;;;;;;;;25.30;58.40;;;;;;6304734;27;19982;-38
2022/08/18 17:04:50;;;;;;;;;;;25.40;58.50;;;;;;6303014;27;19927;-38
2022/08/18 17:07:52;;;;;;;;;;;25.30;58.60;;;;;;6305033;27;20892;-38
2022/08/18 17:10:54;;;;;;;;;;;25.20;58.40;;;;;;6306592;27;19927;-38
2022/08/18 17:13:56;;;;;;;;;;;25.30;58.40;;;;;;6304013;27;20049;-38
2022/08/18 17:16:59;;;;;;;;;;;25.40;58.50;;;;;;6286348;27;20754;-38
2022/08/18 17:20:00;;;;;;;;;;;25.30;58.40;;;;;;6305523;27;20931;-39
2022/08/18 17:23:02;;;;;;;;;;;25.40;58.50;;;;;;6306726;27;19918;-39
2022/08/18 17:26:05;;;;;;;;;;;25.30;58.50;;;;;;6306222;27;20781;-38
2022/08/18 17:29:11;;;;;;;;;;;25.30;58.40;;;;;;6290599;27;19934;-38
2022/08/18 17:32:19;;;;;;;;;;;25.30;58.40;;;;;;6308752;27;20049;-39
2022/08/18 17:35:22;;;;;;;;;;;25.40;58.50;;;;;;6291334;27;20032;-38
2022/08/18 17:38:38;;;;;;;;;;;25.40;58.50;;;;;;6307491;27;19927;-39
2022/08/18 17:44:57;;;;;;;;;;;25.20;58.30;;;;;;6291588;27;20030;-38
2022/08/18 17:48:05;;;;;;;;;;;25.40;58.50;;;;;;6307346;27;19935;-38
2022/08/18 17:54:28;;;;;;;;;;;25.40;58.40;;;;;;6294796;27;20104;-38
2022/08/18 17:57:31;;;;;;;;;;;25.50;58.50;;;;;;6310147;27;20960;-39
2022/08/18 18:00:32;;;;;;;;;;;25.30;58.40;;;;;;6291738;27;19923;-38
2022/08/18 18:03:34;;;;;;;;;;;25.20;58.30;;;;;;6311007;27;19922;-39
2022/08/18 18:06:37;;;;;;;;;;;25.20;58.30;;;;;;6308724;27;19927;-38
2022/08/18 18:09:39;;;;;;;;;;;25.50;58.50;;;;;;6309589;27;20792;-38
2022/08/18 18:12:41;;;;;;;;;;;25.30;58.30;;;;;;6309681;27;19992;-39
2022/08/18 18:15:45;;;;;;;;;;;25.50;58.50;;;;;;6307570;27;19931;-38
2022/08/18 18:18:55;;;;;;;;;;;25.40;58.40;;;;;;6315096;27;19929;-39
2022/08/18 18:22:03;;;;;;;;;;;25.50;58.40;;;;;;6292719;27;20038;-41
2022/08/18 18:25:06;;;;;;;;;;;25.50;58.50;;;;;;6313571;27;20041;-40
2022/08/18 18:28:23;;;;;;;;;;;25.50;58.50;;;;;;6312853;27;20808;-38
2022/08/18 18:31:28;;;;;;;;;;;25.50;58.40;;;;;;6311486;27;19933;-39
2022/08/18 18:34:32;;;;;;;;;;;25.30;58.30;;;;;;6311963;27;19969;-38
2022/08/18 18:37:38;;;;;;;;;;;25.40;58.40;;;;;;6315655;27;19928;-40
2022/08/18 18:40:53;;;;;;;;;;;25.40;58.40;;;;;;6313780;27;19970;-38
2022/08/18 18:44:04;;;;;;;;;;;25.30;58.30;;;;;;6319120;27;20007;-37
2022/08/18 18:47:09;;;;;;;;;;;25.60;58.50;;;;;;6298050;27;19962;-38
2022/08/18 18:50:15;;;;;;;;;;;25.60;58.50;;;;;;6313340;27;20465;-38